Aviation Digital Data Service (ADDS)

Output produced by TAFs form (2212 UTC 05 February 2016)
found at http://aviationweather.gov/adds/tafs/
 
KCNY 051904Z 0519/0618 VRB03KT P6SM OVC010 
     FM052000 VRB03KT P6SM SCT010 SCT050 
     FM060000 VRB02KT P6SM SCT200